createdAt,value
2023-05-02T00:02:11.830Z,99.90
2023-05-02T00:04:39.598Z,99.90
2023-05-02T00:07:07.138Z,99.90
2023-05-02T00:09:35.010Z,99.90
2023-05-02T00:12:02.737Z,99.90
2023-05-02T00:14:30.217Z,99.90
2023-05-02T00:16:58.221Z,99.90
2023-05-02T00:19:25.801Z,99.90
2023-05-02T00:21:53.466Z,99.90
2023-05-02T00:24:20.982Z,99.90
2023-05-02T00:26:48.758Z,99.90
2023-05-02T00:29:16.250Z,99.90
2023-05-02T00:31:43.800Z,99.90
2023-05-02T00:34:11.285Z,99.90
2023-05-02T00:36:39.100Z,99.90
2023-05-02T00:39:07.041Z,99.90
2023-05-02T00:41:34.510Z,99.90
2023-05-02T00:44:02.260Z,99.90
2023-05-02T00:46:30.613Z,99.90
2023-05-02T00:48:58.231Z,99.90
2023-05-02T00:51:27.447Z,99.90
2023-05-02T00:53:55.110Z,99.90
2023-05-02T00:56:22.611Z,99.90
2023-05-02T00:58:50.202Z,99.90
2023-05-02T01:01:32.465Z,99.90
2023-05-02T01:04:24.212Z,99.90
2023-05-02T01:07:12.567Z,99.90
2023-05-02T01:10:10.755Z,99.90
2023-05-02T01:12:42.596Z,99.90
2023-05-02T01:15:13.003Z,99.90
2023-05-02T01:17:41.972Z,99.90
2023-05-02T01:20:14.762Z,99.90
2023-05-02T01:22:42.532Z,99.90
2023-05-02T01:25:37.093Z,99.90
2023-05-02T01:28:19.311Z,99.90
2023-05-02T01:30:50.295Z,99.90
2023-05-02T01:33:19.233Z,99.90
2023-05-02T01:35:51.294Z,99.90
2023-05-02T01:38:19.747Z,99.90
2023-05-02T01:40:50.447Z,99.90
2023-05-02T01:43:20.734Z,99.90
2023-05-02T01:45:50.876Z,99.90
2023-05-02T01:48:21.244Z,99.90
2023-05-02T01:50:50.526Z,99.90
2023-05-02T01:53:19.207Z,99.90
2023-05-02T01:55:47.689Z,99.90
2023-05-02T01:58:17.359Z,99.90
2023-05-02T02:00:46.732Z,99.90
2023-05-02T02:03:16.357Z,99.90
2023-05-02T02:05:45.200Z,99.90
2023-05-02T02:08:12.808Z,99.90
2023-05-02T02:10:46.857Z,99.90
2023-05-02T02:13:26.883Z,99.90
2023-05-02T02:15:59.823Z,99.90
2023-05-02T02:18:29.559Z,99.90
2023-05-02T02:20:59.983Z,99.90
2023-05-02T02:23:29.923Z,99.90
2023-05-02T02:25:57.820Z,99.90
2023-05-02T02:28:25.579Z,99.90
2023-05-02T02:30:53.195Z,99.90
2023-05-02T02:33:21.316Z,99.90
2023-05-02T02:35:56.140Z,99.90
2023-05-02T02:38:53.407Z,99.90
2023-05-02T02:41:56.518Z,99.90
2023-05-02T02:44:39.411Z,99.90
2023-05-02T02:47:12.276Z,99.90
2023-05-02T02:49:47.705Z,99.90
2023-05-02T02:52:18.642Z,99.90
2023-05-02T02:54:51.633Z,99.90
2023-05-02T02:57:29.115Z,99.90
2023-05-02T03:00:11.086Z,99.90
2023-05-02T03:02:41.896Z,99.90
2023-05-02T03:05:11.285Z,99.90
2023-05-02T03:07:38.800Z,99.90
2023-05-02T03:10:07.155Z,99.90
2023-05-02T03:12:34.680Z,99.90
2023-05-02T03:15:28.275Z,99.90
2023-05-02T03:17:55.910Z,99.90
2023-05-02T03:20:23.731Z,99.90
2023-05-02T03:22:51.198Z,99.90
2023-05-02T03:25:18.665Z,99.90
2023-05-02T03:27:46.178Z,99.90
2023-05-02T03:30:13.763Z,99.90
2023-05-02T03:32:41.275Z,99.90
2023-05-02T03:35:09.059Z,99.90
2023-05-02T03:37:36.665Z,99.90
2023-05-02T03:40:04.319Z,99.90
2023-05-02T03:42:32.228Z,99.90
2023-05-02T03:44:59.836Z,99.90
2023-05-02T03:47:27.311Z,99.90
2023-05-02T03:49:55.098Z,99.90
2023-05-02T03:52:23.440Z,99.90
2023-05-02T03:54:50.988Z,99.90
2023-05-02T03:57:18.851Z,99.90
2023-05-02T03:59:47.494Z,99.90
2023-05-02T04:02:15.936Z,99.90
2023-05-02T04:04:43.982Z,99.90
2023-05-02T04:07:18.525Z,99.90
2023-05-02T04:09:46.253Z,99.90
2023-05-02T04:12:15.745Z,99.90
2023-05-02T04:14:43.450Z,99.90
2023-05-02T04:17:11.041Z,99.90
2023-05-02T04:19:38.514Z,99.90
2023-05-02T04:22:06.438Z,99.90
2023-05-02T04:24:33.917Z,99.90
2023-05-02T04:27:01.715Z,99.90
2023-05-02T04:29:29.272Z,99.90
2023-05-02T04:31:57.005Z,99.90
2023-05-02T04:34:24.509Z,99.90
2023-05-02T04:36:52.075Z,99.90
2023-05-02T04:39:19.563Z,99.90
2023-05-02T04:41:47.312Z,99.90
2023-05-02T04:44:14.848Z,99.90
2023-05-02T04:46:42.423Z,99.90
2023-05-02T04:49:10.446Z,99.90
2023-05-02T04:51:38.053Z,99.90
2023-05-02T04:54:05.526Z,99.90
2023-05-02T04:56:32.997Z,99.90
2023-05-02T04:59:00.720Z,99.90
2023-05-02T05:01:28.384Z,99.90
2023-05-02T05:03:56.562Z,99.90
2023-05-02T05:06:24.677Z,99.90
2023-05-02T05:08:52.659Z,99.90
2023-05-02T05:11:20.256Z,99.90
2023-05-02T05:13:47.729Z,99.90
2023-05-02T05:16:15.222Z,99.90
2023-05-02T05:18:43.196Z,99.90
2023-05-02T05:21:11.523Z,99.90
2023-05-02T05:23:39.202Z,99.90
2023-05-02T05:26:14.112Z,99.90
2023-05-02T05:28:41.997Z,99.90
2023-05-02T05:31:11.052Z,99.90
2023-05-02T05:33:39.822Z,99.90
2023-05-02T05:36:12.625Z,99.90
2023-05-02T05:38:40.303Z,99.90
2023-05-02T05:41:12.120Z,99.90
2023-05-02T05:43:39.768Z,99.90
2023-05-02T05:46:07.281Z,99.90
2023-05-02T05:48:34.798Z,99.90
2023-05-02T05:51:06.129Z,99.90
2023-05-02T05:53:34.227Z,99.90
2023-05-02T05:56:12.230Z,99.90
2023-05-02T05:58:40.511Z,99.90
2023-05-02T06:01:08.572Z,99.90
2023-05-02T06:03:36.345Z,99.90
2023-05-02T06:06:04.157Z,99.90
2023-05-02T06:08:31.749Z,99.90
2023-05-02T06:10:59.258Z,99.90
2023-05-02T06:13:26.905Z,99.90
2023-05-02T06:15:54.510Z,99.90
2023-05-02T06:18:22.028Z,99.90
2023-05-02T06:20:49.602Z,99.90
2023-05-02T06:23:17.150Z,99.90
2023-05-02T06:25:44.619Z,99.90
2023-05-02T06:28:12.303Z,99.90
2023-05-02T06:30:39.835Z,99.90
2023-05-02T06:33:07.730Z,99.90
2023-05-02T06:35:35.291Z,99.90
2023-05-02T06:38:02.807Z,99.90
2023-05-02T06:40:30.281Z,99.90
2023-05-02T06:42:57.750Z,99.90
2023-05-02T06:45:25.210Z,99.90
2023-05-02T06:47:52.775Z,99.90
2023-05-02T06:50:21.213Z,99.90
2023-05-02T06:52:48.660Z,99.90
2023-05-02T06:55:16.243Z,99.90
2023-05-02T06:57:43.930Z,99.90
2023-05-02T07:00:11.984Z,99.90
2023-05-02T07:02:39.508Z,99.90
2023-05-02T07:05:07.404Z,99.90
2023-05-02T07:07:34.920Z,99.90
2023-05-02T07:10:03.367Z,99.90
2023-05-02T07:12:31.144Z,99.90
2023-05-02T07:14:58.602Z,99.90
2023-05-02T07:17:26.541Z,99.90
2023-05-02T07:19:54.529Z,99.90
2023-05-02T07:22:22.092Z,99.90
2023-05-02T07:24:49.573Z,99.20
2023-05-02T07:27:17.242Z,93.10
2023-05-02T07:29:44.820Z,89.50
2023-05-02T07:32:12.327Z,89.50
2023-05-02T07:34:40.001Z,82.80
2023-05-02T07:37:07.710Z,81.50
2023-05-02T07:39:35.253Z,86.20
2023-05-02T07:42:03.983Z,90.70
2023-05-02T07:44:33.641Z,85.80
2023-05-02T07:47:01.093Z,87.50
2023-05-02T07:49:28.739Z,85.30
2023-05-02T07:51:56.361Z,84.20
2023-05-02T07:54:26.338Z,84.70
2023-05-02T07:56:54.242Z,84.60
2023-05-02T07:59:21.702Z,90.30
2023-05-02T08:01:49.160Z,90.20
2023-05-02T08:04:16.947Z,89.10
2023-05-02T08:06:45.493Z,85.90
2023-05-02T08:09:13.019Z,79.10
2023-05-02T08:11:40.705Z,77.50
2023-05-02T08:14:08.223Z,80.80
2023-05-02T08:16:35.831Z,82.70
2023-05-02T08:19:03.520Z,87.90
2023-05-02T08:21:32.591Z,85.10
2023-05-02T08:24:01.093Z,81.70
2023-05-02T08:26:28.699Z,80.20
2023-05-02T08:28:56.164Z,76.80
2023-05-02T08:31:23.810Z,81.90
2023-05-02T08:33:51.410Z,87.10
2023-05-02T08:36:19.759Z,89.50
2023-05-02T08:38:47.492Z,91.70
2023-05-02T08:41:19.367Z,90.50
2023-05-02T08:43:47.362Z,88.40
2023-05-02T08:46:16.743Z,90.40
2023-05-02T08:48:48.249Z,92.00
2023-05-02T08:53:50.879Z,91.80
2023-05-02T08:56:18.421Z,91.70
2023-05-02T08:58:46.129Z,91.40
2023-05-02T09:01:19.630Z,90.80
2023-05-02T09:03:48.369Z,89.20
2023-05-02T09:06:18.444Z,82.80
2023-05-02T09:08:49.116Z,79.20
2023-05-02T09:11:17.650Z,72.80
2023-05-02T09:13:49.879Z,75.30
2023-05-02T09:16:20.156Z,76.20
2023-05-02T09:18:50.516Z,79.00
2023-05-02T09:21:21.185Z,80.30
2023-05-02T09:23:50.924Z,82.50
2023-05-02T09:26:19.668Z,82.00
2023-05-02T09:28:51.820Z,79.70
2023-05-02T09:31:49.753Z,78.40
2023-05-02T09:34:17.223Z,79.80
2023-05-02T09:36:46.995Z,74.50
2023-05-02T09:39:17.051Z,72.70
2023-05-02T09:41:47.030Z,74.10
2023-05-02T09:44:18.470Z,77.40
2023-05-02T09:46:48.875Z,78.10
2023-05-02T09:49:20.182Z,76.60
2023-05-02T09:51:48.652Z,80.70
2023-05-02T09:54:36.453Z,82.70
2023-05-02T09:57:04.770Z,85.00
2023-05-02T09:59:32.263Z,85.60
2023-05-02T10:02:03.161Z,75.00
2023-05-02T10:04:32.573Z,71.40
2023-05-02T10:07:01.950Z,70.30
2023-05-02T10:09:34.095Z,70.50
2023-05-02T10:12:08.361Z,68.20
2023-05-02T10:14:49.263Z,66.50
2023-05-02T10:17:26.670Z,69.20
2023-05-02T10:19:57.099Z,63.80
2023-05-02T10:22:25.724Z,66.40
2023-05-02T10:24:54.341Z,64.10
2023-05-02T10:27:22.640Z,60.90
2023-05-02T10:29:52.130Z,60.00
2023-05-02T10:32:21.749Z,59.70
2023-05-02T10:34:51.999Z,61.00
2023-05-02T10:37:20.583Z,61.10
2023-05-02T10:39:48.181Z,63.90
2023-05-02T10:42:16.088Z,68.20
2023-05-02T10:44:44.421Z,70.90
2023-05-02T10:47:25.507Z,72.40
2023-05-02T10:50:02.935Z,68.50
2023-05-02T10:52:31.969Z,67.30
2023-05-02T10:55:20.118Z,65.70
2023-05-02T10:58:05.727Z,67.00
2023-05-02T11:00:34.435Z,66.40
2023-05-02T11:03:02.601Z,65.00
2023-05-02T11:05:30.635Z,62.20
2023-05-02T11:08:16.829Z,66.10
2023-05-02T11:10:46.533Z,67.80
2023-05-02T11:13:14.209Z,66.90
2023-05-02T11:15:41.807Z,66.70
2023-05-02T11:18:14.100Z,67.40
2023-05-02T11:20:43.277Z,66.50
2023-05-02T11:23:22.244Z,63.90
2023-05-02T11:25:51.286Z,62.80
2023-05-02T11:28:37.557Z,63.50
2023-05-02T11:31:10.381Z,63.90
2023-05-02T11:33:37.912Z,66.20
2023-05-02T11:36:05.667Z,71.00
2023-05-02T11:38:39.758Z,71.90
2023-05-02T11:41:07.260Z,71.00
2023-05-02T11:43:35.039Z,68.80
2023-05-02T11:46:03.040Z,69.80
2023-05-02T11:48:31.761Z,68.40
2023-05-02T11:51:03.893Z,68.60
2023-05-02T11:53:32.160Z,72.00
2023-05-02T11:56:03.003Z,73.90
2023-05-02T11:58:34.707Z,73.40
2023-05-02T12:01:15.738Z,73.80
2023-05-02T12:03:44.079Z,73.60
2023-05-02T12:06:14.053Z,76.60
2023-05-02T12:08:43.829Z,74.70
2023-05-02T12:11:15.767Z,76.10
2023-05-02T12:13:48.252Z,74.60
2023-05-02T12:16:17.235Z,76.90
2023-05-02T12:18:45.775Z,78.10
2023-05-02T12:21:13.537Z,78.30
2023-05-02T12:23:42.479Z,77.60
2023-05-02T12:26:21.852Z,79.10
2023-05-02T12:28:51.344Z,78.40
2023-05-02T12:31:19.761Z,78.20
2023-05-02T12:33:48.611Z,77.90
2023-05-02T12:36:16.639Z,78.90
2023-05-02T12:38:57.291Z,78.70
2023-05-02T12:41:34.708Z,79.10
2023-05-02T12:44:02.752Z,80.10
2023-05-02T12:46:31.925Z,80.00
2023-05-02T12:49:03.341Z,79.00
2023-05-02T12:51:32.789Z,83.40
2023-05-02T12:54:00.594Z,80.50
2023-05-02T12:56:32.505Z,82.70
2023-05-02T12:59:01.697Z,80.10
2023-05-02T13:01:29.474Z,82.60
2023-05-02T13:03:57.208Z,80.60
2023-05-02T13:06:24.913Z,83.00
2023-05-02T13:08:52.482Z,81.50
2023-05-02T13:11:20.723Z,78.50
2023-05-02T13:13:48.532Z,80.50
2023-05-02T13:16:16.155Z,79.60
2023-05-02T13:18:45.445Z,80.90
2023-05-02T13:21:14.687Z,80.60
2023-05-02T13:23:44.335Z,80.50
2023-05-02T13:26:12.034Z,80.40
2023-05-02T13:28:39.588Z,81.30
2023-05-02T13:31:07.876Z,80.60
2023-05-02T13:33:35.667Z,80.50
2023-05-02T13:36:03.180Z,78.60
2023-05-02T13:38:30.950Z,79.00
2023-05-02T13:40:58.447Z,78.80
2023-05-02T13:43:25.976Z,80.00
2023-05-02T13:45:53.700Z,80.90
2023-05-02T13:48:21.346Z,82.50
2023-05-02T13:50:48.921Z,81.30
2023-05-02T13:53:16.486Z,83.50
2023-05-02T13:55:44.000Z,82.90
2023-05-02T13:58:11.527Z,82.50
2023-05-02T14:00:39.153Z,82.60
2023-05-02T14:03:07.043Z,78.70
2023-05-02T14:05:36.667Z,81.40
2023-05-02T14:08:04.283Z,81.70
2023-05-02T14:10:31.721Z,81.20
2023-05-02T14:12:59.224Z,79.70
2023-05-02T14:15:27.236Z,79.30
2023-05-02T14:17:54.825Z,79.60
2023-05-02T14:20:23.772Z,80.40
2023-05-02T14:22:51.277Z,80.00
2023-05-02T14:25:19.914Z,81.20
2023-05-02T14:27:47.718Z,80.30
2023-05-02T14:30:15.440Z,79.20
2023-05-02T14:32:42.966Z,77.70
2023-05-02T14:35:10.714Z,78.50
2023-05-02T14:37:38.253Z,77.50
2023-05-02T14:40:06.601Z,78.50
2023-05-02T14:42:34.238Z,78.10
2023-05-02T14:45:02.542Z,76.20
2023-05-02T14:47:31.431Z,76.50
2023-05-02T14:49:59.077Z,76.10
2023-05-02T14:52:27.380Z,78.80
2023-05-02T14:54:55.852Z,77.10
2023-05-02T14:57:24.110Z,77.90
2023-05-02T14:59:51.852Z,77.40
2023-05-02T15:02:19.552Z,79.00
2023-05-02T15:04:47.336Z,76.80
2023-05-02T15:07:15.872Z,78.10
2023-05-02T15:09:44.008Z,78.90
2023-05-02T15:12:12.327Z,79.20
2023-05-02T15:14:39.850Z,78.30
2023-05-02T15:17:08.120Z,75.40
2023-05-02T15:19:35.929Z,76.60
2023-05-02T15:22:03.453Z,75.20
2023-05-02T15:24:31.038Z,76.30
2023-05-02T15:26:58.870Z,76.30
2023-05-02T15:29:26.428Z,76.30
2023-05-02T15:31:54.850Z,77.00
2023-05-02T15:34:22.472Z,76.00
2023-05-02T15:36:50.157Z,74.30
2023-05-02T15:39:17.792Z,76.10
2023-05-02T15:41:48.090Z,76.80
2023-05-02T15:44:15.767Z,76.10
2023-05-02T15:46:47.113Z,75.40
2023-05-02T15:49:15.333Z,75.60
2023-05-02T15:51:42.855Z,75.70
2023-05-02T15:54:10.331Z,75.80
2023-05-02T15:56:38.468Z,74.80
2023-05-02T15:59:06.009Z,75.70
2023-05-02T16:01:33.501Z,76.70
2023-05-02T16:04:01.514Z,74.80
2023-05-02T16:06:29.059Z,76.10
2023-05-02T16:08:56.504Z,75.60
2023-05-02T16:11:24.009Z,75.00
2023-05-02T16:13:52.488Z,75.50
2023-05-02T16:16:20.076Z,75.90
2023-05-02T16:18:47.640Z,77.10
2023-05-02T16:21:15.114Z,75.50
2023-05-02T16:23:42.687Z,74.10
2023-05-02T16:26:10.771Z,73.80
2023-05-02T16:28:38.255Z,76.30
2023-05-02T16:31:11.411Z,77.40
2023-05-02T16:33:39.771Z,77.30
2023-05-02T16:36:07.645Z,78.40
2023-05-02T16:38:36.714Z,76.80
2023-05-02T16:41:07.292Z,75.40
2023-05-02T16:43:35.111Z,76.50
2023-05-02T16:46:04.324Z,74.80
2023-05-02T16:48:32.416Z,76.30
2023-05-02T16:51:01.830Z,75.00
2023-05-02T16:53:31.559Z,75.30
2023-05-02T16:55:59.945Z,74.90
2023-05-02T16:58:30.456Z,76.90
2023-05-02T17:01:00.430Z,76.60
2023-05-02T17:03:29.512Z,76.00
2023-05-02T17:06:01.862Z,77.80
2023-05-02T17:08:29.731Z,77.50
2023-05-02T17:10:57.627Z,79.70
2023-05-02T17:13:25.149Z,78.90
2023-05-02T17:15:53.939Z,76.60
2023-05-02T17:18:22.150Z,80.30
2023-05-02T17:20:50.050Z,78.40
2023-05-02T17:23:18.056Z,80.10
2023-05-02T17:25:45.769Z,79.80
2023-05-02T17:28:13.364Z,77.90
2023-05-02T17:30:40.924Z,78.50
2023-05-02T17:33:08.513Z,77.90
2023-05-02T17:35:36.066Z,78.60
2023-05-02T17:38:03.708Z,78.60
2023-05-02T17:40:31.192Z,78.60
2023-05-02T17:42:59.467Z,79.20
2023-05-02T17:45:29.280Z,78.90
2023-05-02T17:47:56.977Z,78.50
2023-05-02T17:50:24.531Z,79.60
2023-05-02T17:52:52.194Z,78.90
2023-05-02T17:55:19.927Z,79.50
2023-05-02T17:57:48.648Z,79.70
2023-05-02T18:00:16.791Z,80.10
2023-05-02T18:02:44.481Z,80.80
2023-05-02T18:05:12.534Z,81.00
2023-05-02T18:07:40.071Z,79.20
2023-05-02T18:10:08.293Z,79.30
2023-05-02T18:12:36.235Z,81.40
2023-05-02T18:15:05.732Z,80.80
2023-05-02T18:17:33.587Z,80.70
2023-05-02T18:20:04.543Z,81.00
2023-05-02T18:22:36.237Z,82.10
2023-05-02T18:25:04.492Z,81.90
2023-05-02T18:27:32.562Z,81.90
2023-05-02T18:30:00.160Z,83.30
2023-05-02T18:32:27.875Z,83.70
2023-05-02T18:34:55.448Z,84.20
2023-05-02T18:37:32.338Z,84.70
2023-05-02T18:40:03.237Z,85.30
2023-05-02T18:42:31.486Z,85.40
2023-05-02T18:44:58.921Z,86.80
2023-05-02T18:47:26.596Z,86.00
2023-05-02T18:49:59.407Z,87.20
2023-05-02T18:52:29.237Z,87.80
2023-05-02T18:54:56.946Z,88.50
2023-05-02T18:57:24.619Z,90.20
2023-05-02T18:59:52.207Z,89.60
2023-05-02T19:02:19.721Z,90.50
2023-05-02T19:04:47.186Z,90.60
2023-05-02T19:07:14.845Z,91.20
2023-05-02T19:09:42.657Z,91.10
2023-05-02T19:12:10.181Z,91.60
2023-05-02T19:14:39.743Z,91.80
2023-05-02T19:17:07.189Z,92.10
2023-05-02T19:19:34.976Z,92.70
2023-05-02T19:22:03.216Z,93.00
2023-05-02T19:24:31.074Z,93.00
2023-05-02T19:26:58.965Z,93.30
2023-05-02T19:29:26.658Z,93.40
2023-05-02T19:31:54.137Z,93.90
2023-05-02T19:34:22.241Z,93.90
2023-05-02T19:36:50.564Z,93.30
2023-05-02T19:39:18.316Z,94.20
2023-05-02T19:41:48.344Z,94.40
2023-05-02T19:44:19.264Z,94.10
2023-05-02T19:46:47.691Z,94.20
2023-05-02T19:49:15.247Z,95.00
2023-05-02T19:51:42.962Z,95.30
2023-05-02T19:54:10.733Z,95.90
2023-05-02T19:56:38.390Z,95.90
2023-05-02T19:59:06.367Z,96.20
2023-05-02T20:01:33.953Z,96.60
2023-05-02T20:04:01.522Z,96.40
2023-05-02T20:06:29.291Z,96.50
2023-05-02T20:08:56.830Z,96.80
2023-05-02T20:11:26.219Z,96.70
2023-05-02T20:13:54.650Z,96.80
2023-05-02T20:16:22.298Z,96.80
2023-05-02T20:18:49.907Z,97.00
2023-05-02T20:21:17.791Z,97.70
2023-05-02T20:23:45.704Z,98.30
2023-05-02T20:26:14.435Z,98.60
2023-05-02T20:28:41.972Z,98.70
2023-05-02T20:31:09.501Z,98.80
2023-05-02T20:33:44.461Z,98.90
2023-05-02T20:36:15.131Z,99.00
2023-05-02T20:38:44.730Z,99.40
2023-05-02T20:41:14.596Z,99.70
2023-05-02T20:43:45.265Z,99.90
2023-05-02T20:46:16.473Z,99.90
2023-05-02T20:48:44.585Z,99.90
2023-05-02T20:51:14.035Z,99.90
2023-05-02T20:53:43.396Z,99.90
2023-05-02T20:56:11.133Z,99.90
2023-05-02T20:58:39.554Z,99.90
2023-05-02T21:01:07.478Z,99.90
2023-05-02T21:03:39.354Z,99.90
2023-05-02T21:06:07.031Z,99.90
2023-05-02T21:08:34.859Z,99.90
2023-05-02T21:11:02.512Z,99.90
2023-05-02T21:13:30.006Z,99.90
2023-05-02T21:15:57.525Z,99.90
2023-05-02T21:18:25.345Z,99.90
2023-05-02T21:20:52.826Z,99.90
2023-05-02T21:23:20.550Z,99.90
2023-05-02T21:25:48.103Z,99.90
2023-05-02T21:28:15.677Z,99.90
2023-05-02T21:30:43.113Z,99.90
2023-05-02T21:33:11.005Z,99.90
2023-05-02T21:35:38.751Z,99.90
2023-05-02T21:38:06.433Z,99.90
2023-05-02T21:40:35.199Z,99.90
2023-05-02T21:43:02.867Z,99.90
2023-05-02T21:45:30.723Z,99.90
2023-05-02T21:47:58.370Z,99.90
2023-05-02T21:50:26.144Z,99.90
2023-05-02T21:52:53.657Z,99.90
2023-05-02T21:55:21.452Z,99.90
2023-05-02T21:57:48.917Z,99.90
2023-05-02T22:00:16.590Z,99.90
2023-05-02T22:02:44.275Z,99.90
2023-05-02T22:05:13.750Z,99.90
2023-05-02T22:07:41.981Z,99.90
2023-05-02T22:10:10.197Z,99.90
2023-05-02T22:12:37.608Z,99.90
2023-05-02T22:15:11.942Z,99.90
2023-05-02T22:17:43.338Z,99.90
2023-05-02T22:20:13.220Z,99.90
2023-05-02T22:22:41.732Z,99.90
2023-05-02T22:25:09.988Z,99.90
2023-05-02T22:27:37.931Z,99.90
2023-05-02T22:30:07.645Z,99.90
2023-05-02T22:32:35.569Z,99.90
2023-05-02T22:35:04.148Z,99.90
2023-05-02T22:37:31.659Z,99.90
2023-05-02T22:39:59.189Z,99.90
2023-05-02T22:42:26.699Z,99.90
2023-05-02T22:44:54.762Z,99.90
2023-05-02T22:47:22.962Z,99.90
2023-05-02T22:49:52.279Z,99.90
2023-05-02T22:52:20.925Z,99.90
2023-05-02T22:54:48.588Z,99.90
2023-05-02T22:57:16.197Z,99.90
2023-05-02T22:59:43.816Z,99.90
2023-05-02T23:02:14.264Z,99.90
2023-05-02T23:04:41.965Z,99.90
2023-05-02T23:07:09.521Z,99.90
2023-05-02T23:09:37.082Z,99.90
2023-05-02T23:12:05.876Z,99.90
2023-05-02T23:14:33.551Z,99.90
2023-05-02T23:17:03.977Z,99.90
2023-05-02T23:19:31.641Z,99.90
2023-05-02T23:21:59.971Z,99.90
2023-05-02T23:24:28.353Z,99.90
2023-05-02T23:26:55.935Z,99.90
2023-05-02T23:29:23.730Z,99.90
2023-05-02T23:31:53.764Z,99.90
2023-05-02T23:34:22.100Z,99.90
2023-05-02T23:36:51.789Z,99.90
2023-05-02T23:39:19.438Z,99.90
2023-05-02T23:41:46.987Z,99.90
2023-05-02T23:44:14.496Z,99.90
2023-05-02T23:46:42.034Z,99.90
2023-05-02T23:49:09.631Z,99.90
2023-05-02T23:51:38.010Z,99.90
2023-05-02T23:54:06.829Z,99.90
2023-05-02T23:56:34.358Z,99.90
2023-05-02T23:59:02.025Z,99.90
